Time;durP1;ratioP1;P1;durP2;ratioP2;P2;SDS_P1;SDS_P2;PMS_P1;PMS_P2;Temp;Humidity;BMP_temperature;BMP_pressure;BME280_temperature;BME280_humidity;BME280_pressure;Samples;Min_cycle;Max_cycle;Signal;HPM_P1;HPM_P2
2022/01/03 00:00:19;;;;;;;10.18;5.72;;;;;;;;;;5039860;28;20032;-85
2022/01/03 00:02:46;;;;;;;12.00;6.00;;;;;;;;;;5041424;28;20108;-84
2022/01/03 00:05:12;;;;;;;14.10;6.22;;;;;;;;;;5046426;28;20033;-84
2022/01/03 00:07:40;;;;;;;12.52;5.85;;;;;;;;;;5047830;28;20052;-82
2022/01/03 00:10:07;;;;;;;10.82;6.28;;;;;;;;;;5048717;28;20873;-83
2022/01/03 00:12:33;;;;;;;9.73;5.72;;;;;;;;;;5046202;28;20880;-83
2022/01/03 00:15:00;;;;;;;15.63;6.45;;;;;;;;;;5047011;28;20070;-83
2022/01/03 00:17:25;;;;;;;13.43;6.05;;;;;;;;;;5037097;28;20032;-84
2022/01/03 00:19:51;;;;;;;13.48;6.38;;;;;;;;;;5052913;28;20078;-82
2022/01/03 00:22:22;;;;;;;16.90;7.07;;;;;;;;;;5058898;28;20080;-82
2022/01/03 00:25:10;;;;;;;9.70;5.78;;;;;;;;;;5061187;28;20032;-84
2022/01/03 00:28:09;;;;;;;10.60;5.28;;;;;;;;;;5035504;28;20503;-84
2022/01/03 00:30:40;;;;;;;9.55;5.68;;;;;;;;;;5065351;28;20030;-84
2022/01/03 00:33:06;;;;;;;13.90;5.65;;;;;;;;;;5055170;28;20051;-84
2022/01/03 00:35:37;;;;;;;17.55;7.35;;;;;;;;;;5055031;28;20025;-84
2022/01/03 00:38:10;;;;;;;12.38;6.00;;;;;;;;;;5055117;28;20036;-83
2022/01/03 00:40:37;;;;;;;14.05;6.50;;;;;;;;;;5042513;28;20021;-85
2022/01/03 00:43:04;;;;;;;13.57;7.57;;;;;;;;;;5060655;28;20499;-84
2022/01/03 00:45:29;;;;;;;9.38;5.93;;;;;;;;;;5061233;28;20419;-83
2022/01/03 00:47:56;;;;;;;10.10;5.60;;;;;;;;;;5054405;28;20024;-84
2022/01/03 00:50:22;;;;;;;10.65;6.03;;;;;;;;;;5054416;28;20029;-83
2022/01/03 00:52:50;;;;;;;13.57;7.60;;;;;;;;;;5046962;28;20051;-84
2022/01/03 00:55:15;;;;;;;18.17;8.35;;;;;;;;;;5056853;28;20039;-85
2022/01/03 00:57:41;;;;;;;16.17;8.05;;;;;;;;;;5040366;28;20458;-85
2022/01/03 01:00:09;;;;;;;14.48;7.75;;;;;;;;;;5062764;28;20025;-84
2022/01/03 01:02:42;;;;;;;11.40;6.57;;;;;;;;;;5054195;28;20025;-83
2022/01/03 01:05:08;;;;;;;17.65;8.23;;;;;;;;;;5056179;28;20017;-84
2022/01/03 01:07:34;;;;;;;19.73;9.00;;;;;;;;;;5041789;28;20029;-85
2022/01/03 01:10:04;;;;;;;17.65;8.98;;;;;;;;;;5045310;28;20025;-84
2022/01/03 01:12:30;;;;;;;14.32;7.80;;;;;;;;;;5054184;28;20032;-84
2022/01/03 01:14:57;;;;;;;20.40;9.63;;;;;;;;;;5058535;28;20033;-84
2022/01/03 01:17:25;;;;;;;19.52;8.50;;;;;;;;;;5067331;28;20127;-84
2022/01/03 01:19:53;;;;;;;13.02;7.60;;;;;;;;;;5041328;28;20464;-83
2022/01/03 01:22:22;;;;;;;16.23;7.97;;;;;;;;;;5027746;28;20049;-84
2022/01/03 01:25:11;;;;;;;11.25;6.65;;;;;;;;;;5031784;28;20053;-84
2022/01/03 01:27:47;;;;;;;12.20;7.13;;;;;;;;;;5032517;28;20037;-84
2022/01/03 01:30:12;;;;;;;17.80;8.90;;;;;;;;;;5015833;28;20041;-83
2022/01/03 01:32:42;;;;;;;19.80;10.98;;;;;;;;;;5034225;28;20033;-84
2022/01/03 01:35:08;;;;;;;19.35;8.63;;;;;;;;;;5033794;28;20029;-83
2022/01/03 01:37:35;;;;;;;20.08;10.18;;;;;;;;;;5033503;28;20512;-84
2022/01/03 01:40:02;;;;;;;17.20;8.75;;;;;;;;;;5033362;28;20029;-85
2022/01/03 01:42:30;;;;;;;16.75;8.85;;;;;;;;;;5033758;28;20113;-85
2022/01/03 01:44:59;;;;;;;16.90;9.35;;;;;;;;;;5033710;28;20025;-84
2022/01/03 01:47:26;;;;;;;19.88;9.85;;;;;;;;;;5015946;28;20124;-81
2022/01/03 01:49:55;;;;;;;15.68;8.52;;;;;;;;;;5033674;28;20100;-83
2022/01/03 01:52:25;;;;;;;16.50;9.80;;;;;;;;;;5033509;28;20492;-83
2022/01/03 01:54:58;;;;;;;19.70;9.68;;;;;;;;;;5032848;28;20436;-82
2022/01/03 01:57:35;;;;;;;25.40;11.00;;;;;;;;;;5024975;28;20033;-82
2022/01/03 02:00:04;;;;;;;23.77;10.57;;;;;;;;;;5012898;28;20117;-84
2022/01/03 02:02:35;;;;;;;17.55;10.18;;;;;;;;;;5013599;28;20029;-82
2022/01/03 02:05:14;;;;;;;21.33;11.00;;;;;;;;;;5014851;28;20486;-86
2022/01/03 02:08:01;;;;;;;15.20;8.98;;;;;;;;;;5033441;28;20057;-83
2022/01/03 02:10:34;;;;;;;25.98;12.27;;;;;;;;;;5032890;28;20032;-83
2022/01/03 02:13:00;;;;;;;12.70;7.45;;;;;;;;;;5030807;28;20028;-84
2022/01/03 02:15:26;;;;;;;37.08;18.85;;;;;;;;;;5032495;28;20037;-83
2022/01/03 02:17:51;;;;;;;66.32;36.47;;;;;;;;;;5015552;28;20037;-84
2022/01/03 02:20:21;;;;;;;46.42;28.15;;;;;;;;;;5032482;28;20072;-85
2022/01/03 02:22:47;;;;;;;19.50;13.20;;;;;;;;;;5009719;28;20122;-84
2022/01/03 02:25:15;;;;;;;23.25;13.50;;;;;;;;;;5032821;28;20041;-83
2022/01/03 02:27:45;;;;;;;21.08;11.43;;;;;;;;;;5032962;28;20481;-84
2022/01/03 02:30:12;;;;;;;;;;;;;;;;;;5014529;28;20025;-83
2022/01/03 02:32:37;;;;;;;18.20;8.32;;;;;;;;;;5027687;28;19987;-83
2022/01/03 02:35:04;;;;;;;20.77;10.95;;;;;;;;;;5032488;28;20033;-83
2022/01/03 02:37:30;;;;;;;21.52;11.95;;;;;;;;;;5014731;28;20033;-82
2022/01/03 02:39:56;;;;;;;24.13;11.65;;;;;;;;;;5032201;28;20036;-83
2022/01/03 02:42:26;;;;;;;25.80;13.60;;;;;;;;;;5014568;28;20108;-84
2022/01/03 02:45:13;;;;;;;30.08;12.55;;;;;;;;;;5014257;28;20038;-85
2022/01/03 02:47:40;;;;;;;25.85;12.43;;;;;;;;;;5009347;28;20041;-84
2022/01/03 02:50:08;;;;;;;21.80;12.07;;;;;;;;;;5014571;28;20056;-84
2022/01/03 02:52:33;;;;;;;25.63;13.23;;;;;;;;;;5032332;28;20033;-83
2022/01/03 02:55:00;;;;;;;23.88;14.20;;;;;;;;;;5032510;28;20433;-84
2022/01/03 02:57:26;;;;;;;21.42;11.50;;;;;;;;;;5031243;28;20108;-85
2022/01/03 02:59:56;;;;;;;24.92;12.80;;;;;;;;;;5014753;28;20029;-85
2022/01/03 03:02:24;;;;;;;18.63;10.40;;;;;;;;;;5029814;28;20036;-85
2022/01/03 03:04:57;;;;;;;25.05;12.45;;;;;;;;;;5032448;28;20537;-85
2022/01/03 03:07:25;;;;;;;22.20;10.45;;;;;;;;;;5024486;28;20245;-82
2022/01/03 03:09:51;;;;;;;23.38;11.48;;;;;;;;;;5031258;28;20033;-83
2022/01/03 03:12:18;;;;;;;22.85;10.68;;;;;;;;;;5031715;28;20036;-83
2022/01/03 03:14:43;;;;;;;17.67;9.15;;;;;;;;;;5031785;28;20033;-83
2022/01/03 03:17:09;;;;;;;13.35;6.97;;;;;;;;;;5033367;28;20033;-83
2022/01/03 03:19:56;;;;;;;11.93;6.78;;;;;;;;;;5031752;28;20036;-83
2022/01/03 03:22:27;;;;;;;15.55;7.30;;;;;;;;;;5037895;28;20029;-83
2022/01/03 03:25:01;;;;;;;12.95;6.50;;;;;;;;;;5044277;28;20025;-83
2022/01/03 03:27:27;;;;;;;12.55;7.35;;;;;;;;;;5039940;28;20074;-82
2022/01/03 03:29:52;;;;;;;11.38;6.03;;;;;;;;;;5048380;28;20021;-83
2022/01/03 03:32:19;;;;;;;11.68;6.35;;;;;;;;;;5051889;28;20037;-83
2022/01/03 03:34:49;;;;;;;12.85;6.72;;;;;;;;;;5047033;28;20511;-83
2022/01/03 03:37:16;;;;;;;17.00;7.45;;;;;;;;;;5037291;28;20175;-83
2022/01/03 03:39:43;;;;;;;13.40;7.78;;;;;;;;;;5026924;28;20037;-82
2022/01/03 03:42:10;;;;;;;13.15;7.80;;;;;;;;;;5033273;28;20387;-83
2022/01/03 03:44:37;;;;;;;13.65;8.07;;;;;;;;;;5029914;28;20029;-83
2022/01/03 03:47:04;;;;;;;15.63;8.13;;;;;;;;;;5030469;28;20027;-84
2022/01/03 03:49:30;;;;;;;14.32;7.70;;;;;;;;;;5033085;28;20477;-83
2022/01/03 03:51:55;;;;;;;18.75;8.65;;;;;;;;;;5038371;28;20080;-84
2022/01/03 03:54:21;;;;;;;16.90;9.60;;;;;;;;;;5041232;28;20064;-84
2022/01/03 03:56:46;;;;;;;13.55;7.40;;;;;;;;;;5046472;28;20036;-84
2022/01/03 03:59:12;;;;;;;13.43;7.88;;;;;;;;;;5042218;28;20037;-84
2022/01/03 04:01:38;;;;;;;13.77;7.53;;;;;;;;;;5046156;28;20027;-85
2022/01/03 04:04:03;;;;;;;12.90;6.88;;;;;;;;;;5050327;28;20086;-84
2022/01/03 04:06:29;;;;;;;13.52;6.72;;;;;;;;;;5041794;28;20033;-83
2022/01/03 04:08:55;;;;;;;13.95;7.15;;;;;;;;;;5044990;28;20466;-85
2022/01/03 04:11:21;;;;;;;12.77;7.53;;;;;;;;;;5051228;28;20128;-84
2022/01/03 04:13:46;;;;;;;11.65;6.60;;;;;;;;;;5044728;28;20092;-84
2022/01/03 04:16:13;;;;;;;12.80;7.30;;;;;;;;;;5050990;28;20116;-84
2022/01/03 04:18:38;;;;;;;12.13;6.05;;;;;;;;;;5044085;28;20033;-83
2022/01/03 04:21:04;;;;;;;9.80;5.70;;;;;;;;;;5042672;28;20029;-82
2022/01/03 04:23:29;;;;;;;10.35;6.07;;;;;;;;;;5030181;28;20060;-83
2022/01/03 04:25:55;;;;;;;11.55;6.07;;;;;;;;;;5044347;28;20024;-84
2022/01/03 04:28:21;;;;;;;11.35;5.65;;;;;;;;;;5035447;28;20033;-82
2022/01/03 04:30:46;;;;;;;10.25;6.30;;;;;;;;;;5033318;28;20392;-83
2022/01/03 04:33:13;;;;;;;9.70;5.00;;;;;;;;;;5045197;28;20023;-82
2022/01/03 04:35:41;;;;;;;10.23;5.63;;;;;;;;;;5032179;28;20036;-82
2022/01/03 04:38:07;;;;;;;9.20;5.22;;;;;;;;;;5048794;28;20086;-83
2022/01/03 04:40:32;;;;;;;12.07;5.65;;;;;;;;;;5035276;28;20033;-82
2022/01/03 04:42:58;;;;;;;9.88;5.63;;;;;;;;;;5033290;28;20378;-85
2022/01/03 04:45:23;;;;;;;8.40;5.13;;;;;;;;;;5036119;28;20032;-83
2022/01/03 04:47:49;;;;;;;10.75;6.68;;;;;;;;;;5051041;28;20033;-84
2022/01/03 04:50:15;;;;;;;8.30;5.43;;;;;;;;;;5044418;28;20037;-84
2022/01/03 04:52:41;;;;;;;10.18;5.82;;;;;;;;;;5035443;28;20021;-84
2022/01/03 04:55:07;;;;;;;7.57;5.20;;;;;;;;;;5049068;28;20039;-83
2022/01/03 04:57:33;;;;;;;8.77;4.82;;;;;;;;;;5047488;28;20029;-82
2022/01/03 04:59:58;;;;;;;11.32;5.60;;;;;;;;;;5048289;28;20052;-83
2022/01/03 05:02:24;;;;;;;13.10;7.70;;;;;;;;;;5054078;28;20230;-84
2022/01/03 05:04:49;;;;;;;11.25;6.50;;;;;;;;;;5032665;28;20026;-83
2022/01/03 05:07:15;;;;;;;12.07;6.80;;;;;;;;;;5050661;28;20029;-85
2022/01/03 05:09:40;;;;;;;13.15;6.57;;;;;;;;;;5049661;28;20036;-84
2022/01/03 05:12:07;;;;;;;11.68;6.47;;;;;;;;;;5054213;28;20409;-83
2022/01/03 05:14:33;;;;;;;9.55;5.40;;;;;;;;;;5041774;28;20102;-85
2022/01/03 05:16:58;;;;;;;10.63;6.32;;;;;;;;;;5037671;28;20052;-84
2022/01/03 05:19:25;;;;;;;9.90;4.97;;;;;;;;;;5047394;28;20046;-84
2022/01/03 05:21:51;;;;;;;15.25;7.00;;;;;;;;;;5037501;28;20042;-84
2022/01/03 05:24:17;;;;;;;11.85;6.45;;;;;;;;;;5044949;28;20393;-84
2022/01/03 05:26:43;;;;;;;10.63;5.95;;;;;;;;;;5032294;28;20029;-84
2022/01/03 05:29:09;;;;;;;9.93;5.07;;;;;;;;;;5050057;28;20025;-82
2022/01/03 05:31:35;;;;;;;10.38;4.97;;;;;;;;;;5034996;28;20029;-83
2022/01/03 05:34:00;;;;;;;9.60;5.32;;;;;;;;;;5034112;28;20354;-82
2022/01/03 05:36:26;;;;;;;12.88;5.88;;;;;;;;;;5037211;28;21019;-84
2022/01/03 05:38:53;;;;;;;12.80;6.53;;;;;;;;;;5053856;28;20048;-84
2022/01/03 05:41:19;;;;;;;9.50;5.38;;;;;;;;;;5042968;28;20025;-83
2022/01/03 05:43:45;;;;;;;11.13;5.70;;;;;;;;;;5052644;28;20029;-83
2022/01/03 05:46:14;;;;;;;10.63;5.50;;;;;;;;;;5052171;28;20029;-83
2022/01/03 05:48:40;;;;;;;16.17;9.57;;;;;;;;;;5052701;28;20071;-85
2022/01/03 05:51:06;;;;;;;11.52;6.45;;;;;;;;;;5021258;28;20049;-84
2022/01/03 05:53:31;;;;;;;15.80;6.88;;;;;;;;;;5036526;28;20366;-83
2022/01/03 05:55:58;;;;;;;12.77;6.50;;;;;;;;;;5052036;28;20039;-87
2022/01/03 05:58:23;;;;;;;12.45;6.50;;;;;;;;;;5046565;28;20028;-84
2022/01/03 06:00:49;;;;;;;15.32;7.45;;;;;;;;;;5032377;28;20028;-83
2022/01/03 06:03:19;;;;;;;10.80;6.68;;;;;;;;;;5043519;28;20028;-83
2022/01/03 06:08:25;;;;;;;20.08;8.07;;;;;;;;;;5048698;28;20438;-85
2022/01/03 06:10:51;;;;;;;16.90;8.43;;;;;;;;;;5047082;28;20036;-83
2022/01/03 06:13:17;;;;;;;27.65;9.65;;;;;;;;;;5034846;28;20020;-84
2022/01/03 06:15:44;;;;;;;19.92;8.35;;;;;;;;;;5056025;28;20029;-83
2022/01/03 06:18:17;;;;;;;18.23;7.65;;;;;;;;;;5051378;28;20469;-84
2022/01/03 06:20:44;;;;;;;10.93;7.28;;;;;;;;;;5042853;28;20059;-82
2022/01/03 06:23:10;;;;;;;12.57;6.53;;;;;;;;;;5043855;28;20041;-84
2022/01/03 06:25:37;;;;;;;11.18;5.85;;;;;;;;;;5063179;28;20033;-82
2022/01/03 06:28:07;;;;;;;12.80;6.47;;;;;;;;;;5044610;28;20025;-82
2022/01/03 06:30:41;;;;;;;13.50;6.63;;;;;;;;;;5059827;28;20127;-82
2022/01/03 06:33:09;;;;;;;27.33;11.13;;;;;;;;;;5042767;28;20029;-83
2022/01/03 06:35:35;;;;;;;18.55;8.73;;;;;;;;;;5055645;28;20545;-85
2022/01/03 06:38:04;;;;;;;17.98;7.45;;;;;;;;;;5051430;28;20056;-85
2022/01/03 06:40:29;;;;;;;19.60;7.07;;;;;;;;;;5055036;28;20029;-84
2022/01/03 06:42:55;;;;;;;15.95;8.18;;;;;;;;;;5052579;28;20079;-84
2022/01/03 06:45:20;;;;;;;13.65;8.05;;;;;;;;;;5037139;28;20547;-84
2022/01/03 06:47:47;;;;;;;16.92;8.38;;;;;;;;;;5051820;28;20071;-84
2022/01/03 06:50:13;;;;;;;16.42;7.80;;;;;;;;;;5056724;28;20095;-84
2022/01/03 06:52:42;;;;;;;18.90;8.65;;;;;;;;;;5062419;28;20123;-84
2022/01/03 06:55:11;;;;;;;14.10;7.47;;;;;;;;;;5060763;28;20032;-83
2022/01/03 06:57:36;;;;;;;23.85;11.77;;;;;;;;;;5044509;28;20414;-84
2022/01/03 07:00:04;;;;;;;21.90;11.30;;;;;;;;;;5045992;28;20074;-84
2022/01/03 07:02:29;;;;;;;19.17;9.85;;;;;;;;;;5060326;28;20052;-85
2022/01/03 07:04:55;;;;;;;32.63;14.82;;;;;;;;;;5039183;28;20044;-85
2022/01/03 07:07:21;;;;;;;36.78;17.42;;;;;;;;;;5062099;28;20029;-83
2022/01/03 07:09:46;;;;;;;51.70;23.27;;;;;;;;;;5049173;28;20051;-84
2022/01/03 07:12:12;;;;;;;37.40;18.65;;;;;;;;;;5038998;28;20021;-83
2022/01/03 07:19:59;;;;;;;26.85;13.18;;;;;;;;;;5056988;28;20051;-83
2022/01/03 07:22:26;;;;;;;32.03;15.88;;;;;;;;;;5042371;28;20048;-84
2022/01/03 07:24:52;;;;;;;58.33;30.08;;;;;;;;;;5041092;28;20028;-83
2022/01/03 07:27:18;;;;;;;40.42;22.15;;;;;;;;;;5064989;28;20477;-83
2022/01/03 07:29:44;;;;;;;59.13;32.03;;;;;;;;;;5063547;28;20031;-83
2022/01/03 07:32:10;;;;;;;33.13;16.02;;;;;;;;;;5045977;28;20024;-83
2022/01/03 07:34:36;;;;;;;25.20;14.20;;;;;;;;;;5059438;28;20053;-86
2022/01/03 07:37:02;;;;;;;26.38;12.98;;;;;;;;;;5041920;28;20104;-85
2022/01/03 07:39:30;;;;;;;18.75;11.23;;;;;;;;;;5043722;28;20116;-81
2022/01/03 07:41:57;;;;;;;19.95;12.27;;;;;;;;;;5061381;28;20032;-83
2022/01/03 07:44:22;;;;;;;21.73;11.07;;;;;;;;;;5043172;28;20048;-84
2022/01/03 07:46:49;;;;;;;20.45;10.98;;;;;;;;;;5061327;28;20078;-85
2022/01/03 07:49:15;;;;;;;45.97;20.55;;;;;;;;;;5046118;28;20411;-83
2022/01/03 07:51:41;;;;;;;25.27;13.32;;;;;;;;;;5060437;28;20029;-84
2022/01/03 07:54:06;;;;;;;24.02;12.10;;;;;;;;;;5062720;28;20032;-84
2022/01/03 07:56:33;;;;;;;29.42;12.77;;;;;;;;;;5058816;28;20104;-82
2022/01/03 07:58:59;;;;;;;23.10;11.30;;;;;;;;;;5064255;28;20036;-83
2022/01/03 08:01:25;;;;;;;23.67;13.15;;;;;;;;;;5041571;28;20049;-84
2022/01/03 08:03:51;;;;;;;28.40;14.15;;;;;;;;;;5057380;28;20024;-84
2022/01/03 08:06:16;;;;;;;22.38;11.90;;;;;;;;;;5040246;28;20174;-85
2022/01/03 08:08:42;;;;;;;25.55;13.38;;;;;;;;;;5058962;28;20033;-84
2022/01/03 08:11:07;;;;;;;26.58;13.68;;;;;;;;;;5052182;28;20448;-85
2022/01/03 08:13:33;;;;;;;26.27;15.45;;;;;;;;;;5055309;28;20029;-85
2022/01/03 08:15:59;;;;;;;26.38;14.93;;;;;;;;;;5052224;28;20473;-79
2022/01/03 08:18:24;;;;;;;27.02;14.07;;;;;;;;;;5048004;28;20094;-83
2022/01/03 08:20:52;;;;;;;31.95;15.38;;;;;;;;;;5036542;28;20060;-81
2022/01/03 08:23:18;;;;;;;27.73;15.18;;;;;;;;;;5049211;28;20076;-83
2022/01/03 08:25:49;;;;;;;27.15;15.70;;;;;;;;;;5047476;28;20060;-85
2022/01/03 08:28:15;;;;;;;28.70;13.57;;;;;;;;;;5046884;28;20048;-84
2022/01/03 08:30:41;;;;;;;26.50;13.90;;;;;;;;;;5048981;28;20496;-83
2022/01/03 08:33:07;;;;;;;26.27;13.52;;;;;;;;;;5043445;28;20179;-83
2022/01/03 08:35:33;;;;;;;26.83;14.55;;;;;;;;;;5049647;28;20029;-83
2022/01/03 08:37:59;;;;;;;28.27;14.95;;;;;;;;;;5052097;28;20443;-82
2022/01/03 08:40:25;;;;;;;32.15;18.00;;;;;;;;;;5053080;28;20025;-82
2022/01/03 08:42:52;;;;;;;23.13;13.13;;;;;;;;;;5033690;28;20029;-84
2022/01/03 08:45:18;;;;;;;21.80;12.95;;;;;;;;;;5036344;28;20503;-84
2022/01/03 08:47:44;;;;;;;31.95;16.10;;;;;;;;;;5046128;28;20032;-81
2022/01/03 08:50:11;;;;;;;45.60;19.98;;;;;;;;;;5055554;28;20052;-84
2022/01/03 08:52:37;;;;;;;25.00;14.05;;;;;;;;;;5050158;28;20060;-83
2022/01/03 08:55:04;;;;;;;23.33;14.13;;;;;;;;;;5036672;28;20070;-84
2022/01/03 08:57:30;;;;;;;32.97;15.70;;;;;;;;;;5030671;28;20098;-86
2022/01/03 08:59:55;;;;;;;24.83;14.63;;;;;;;;;;5048753;28;20029;-83
2022/01/03 09:02:21;;;;;;;25.27;14.15;;;;;;;;;;5047660;28;20461;-83
2022/01/03 09:04:47;;;;;;;24.40;13.63;;;;;;;;;;5053060;28;20126;-82
2022/01/03 09:07:13;;;;;;;18.10;11.25;;;;;;;;;;5033064;28;20794;-81
2022/01/03 09:09:39;;;;;;;22.77;13.55;;;;;;;;;;5046137;28;20033;-82
2022/01/03 09:12:09;;;;;;;22.35;12.55;;;;;;;;;;5048301;28;20829;-79
2022/01/03 09:14:35;;;;;;;18.73;10.98;;;;;;;;;;5046079;28;20524;-81
2022/01/03 09:17:01;;;;;;;21.27;12.65;;;;;;;;;;5047619;28;20363;-81
2022/01/03 09:19:27;;;;;;;22.75;13.70;;;;;;;;;;5050949;28;20032;-82
2022/01/03 09:22:00;;;;;;;23.45;12.25;;;;;;;;;;5045075;28;20049;-81
2022/01/03 09:24:44;;;;;;;21.40;13.73;;;;;;;;;;5040429;28;20461;-80
2022/01/03 09:29:58;;;;;;;23.15;12.88;;;;;;;;;;5049466;28;20040;-81
2022/01/03 09:32:24;;;;;;;28.90;14.02;;;;;;;;;;5051669;28;20029;-80
2022/01/03 09:34:49;;;;;;;20.85;11.52;;;;;;;;;;5038828;28;20025;-82
2022/01/03 09:37:20;;;;;;;21.13;12.52;;;;;;;;;;5045638;28;20120;-80
2022/01/03 09:39:47;;;;;;;26.77;12.60;;;;;;;;;;5051506;28;20032;-81
2022/01/03 09:42:14;;;;;;;22.65;12.98;;;;;;;;;;5050125;28;20031;-82
2022/01/03 09:44:42;;;;;;;18.80;13.23;;;;;;;;;;5033143;28;20465;-83
2022/01/03 09:47:10;;;;;;;21.75;13.02;;;;;;;;;;5046297;28;20525;-82
2022/01/03 09:49:38;;;;;;;24.70;13.13;;;;;;;;;;5049127;28;20441;-81
2022/01/03 09:52:06;;;;;;;20.92;12.70;;;;;;;;;;5049015;28;20017;-79
2022/01/03 09:54:32;;;;;;;26.55;14.88;;;;;;;;;;5052228;28;20477;-81
2022/01/03 09:57:02;;;;;;;24.98;14.32;;;;;;;;;;5048238;28;20047;-80
2022/01/03 09:59:29;;;;;;;27.63;13.93;;;;;;;;;;5044884;28;20032;-80
2022/01/03 10:01:56;;;;;;;23.63;12.82;;;;;;;;;;5055457;28;20615;-80
2022/01/03 10:04:23;;;;;;;23.27;13.57;;;;;;;;;;5047890;28;20033;-81
2022/01/03 10:06:49;;;;;;;19.75;12.23;;;;;;;;;;5039551;28;20059;-80
2022/01/03 10:09:15;;;;;;;20.38;12.52;;;;;;;;;;5047426;28;20079;-80
2022/01/03 10:11:41;;;;;;;19.75;12.80;;;;;;;;;;5041197;28;20036;-82
2022/01/03 10:14:06;;;;;;;20.42;11.82;;;;;;;;;;5048281;28;20029;-79
2022/01/03 10:16:32;;;;;;;21.80;13.57;;;;;;;;;;5047869;28;20068;-81
2022/01/03 10:18:58;;;;;;;23.73;13.18;;;;;;;;;;5033074;28;20030;-82
2022/01/03 10:21:38;;;;;;;21.60;14.20;;;;;;;;;;5051469;28;20025;-80
2022/01/03 10:24:04;;;;;;;24.45;14.35;;;;;;;;;;5048474;28;20036;-80
2022/01/03 10:26:30;;;;;;;27.90;15.70;;;;;;;;;;5044260;28;20047;-81
2022/01/03 10:29:23;;;;;;;26.02;14.13;;;;;;;;;;5045626;28;20037;-79
2022/01/03 10:31:51;;;;;;;26.00;13.50;;;;;;;;;;5044883;28;20035;-78
2022/01/03 10:34:19;;;;;;;23.27;14.10;;;;;;;;;;5051310;28;20056;-79
2022/01/03 10:36:47;;;;;;;26.10;14.15;;;;;;;;;;5050977;28;20025;-79
2022/01/03 10:39:15;;;;;;;22.05;13.93;;;;;;;;;;5044792;28;20027;-78
2022/01/03 10:41:41;;;;;;;22.05;12.88;;;;;;;;;;5034006;28;20480;-78
2022/01/03 10:44:09;;;;;;;22.77;14.55;;;;;;;;;;5050533;28;20567;-79
2022/01/03 10:46:36;;;;;;;25.10;14.18;;;;;;;;;;5054826;28;20032;-79
2022/01/03 10:49:12;;;;;;;25.30;14.20;;;;;;;;;;5051743;28;20899;-79
2022/01/03 10:51:39;;;;;;;20.45;13.27;;;;;;;;;;5049106;28;20082;-81
2022/01/03 10:54:09;;;;;;;30.48;13.65;;;;;;;;;;5051130;28;20428;-79
2022/01/03 10:56:47;;;;;;;23.33;13.52;;;;;;;;;;5047186;28;20032;-87
2022/01/03 10:59:16;;;;;;;23.25;14.35;;;;;;;;;;5033137;28;20071;-83
2022/01/03 11:01:44;;;;;;;22.52;14.18;;;;;;;;;;5052046;28;20027;-83
2022/01/03 11:04:13;;;;;;;26.10;14.45;;;;;;;;;;5033438;28;20051;-82
2022/01/03 11:11:55;;;;;;;24.60;14.13;;;;;;;;;;5051492;28;20078;-83
2022/01/03 11:14:41;;;;;;;27.23;15.83;;;;;;;;;;5050901;28;20063;-90
2022/01/03 11:17:29;;;;;;;22.83;13.70;;;;;;;;;;5034975;28;20024;-88
2022/01/03 11:19:58;;;;;;;27.27;14.80;;;;;;;;;;5033332;28;20465;-87
2022/01/03 11:22:51;;;;;;;26.83;14.50;;;;;;;;;;5049129;28;20045;-85
2022/01/03 11:25:29;;;;;;;55.78;23.63;;;;;;;;;;5048690;28;20048;-80
2022/01/03 11:27:54;;;;;;;39.15;20.52;;;;;;;;;;5047989;28;20225;-80
2022/01/03 11:30:20;;;;;;;29.17;15.75;;;;;;;;;;5041035;28;20108;-81
2022/01/03 11:32:49;;;;;;;28.48;16.48;;;;;;;;;;5043133;28;20468;-79
2022/01/03 11:35:15;;;;;;;28.33;16.77;;;;;;;;;;5046554;28;20477;-80
2022/01/03 11:37:46;;;;;;;39.92;19.77;;;;;;;;;;5048130;28;20024;-80
2022/01/03 11:40:15;;;;;;;38.25;18.38;;;;;;;;;;5045721;28;20017;-80
2022/01/03 11:42:42;;;;;;;33.95;18.27;;;;;;;;;;5040302;28;20037;-82
2022/01/03 11:45:08;;;;;;;34.15;17.13;;;;;;;;;;5043424;28;20024;-80
2022/01/03 11:47:35;;;;;;;31.80;17.08;;;;;;;;;;5044412;28;20025;-80
2022/01/03 11:50:01;;;;;;;49.97;27.77;;;;;;;;;;5040741;28;20095;-81
2022/01/03 11:52:28;;;;;;;25.35;15.82;;;;;;;;;;5043449;28;20027;-81
2022/01/03 11:54:55;;;;;;;32.22;16.10;;;;;;;;;;5040964;28;20044;-81
2022/01/03 11:57:41;;;;;;;30.08;16.15;;;;;;;;;;5041358;28;20021;-81
2022/01/03 12:05:50;;;;;;;33.75;17.17;;;;;;;;;;5045344;28;19923;-80
2022/01/03 12:08:53;;;;;;;25.95;16.30;;;;;;;;;;5040193;28;20040;-81
2022/01/03 12:11:21;;;;;;;28.25;17.02;;;;;;;;;;5004441;28;20420;-80
2022/01/03 12:13:51;;;;;;;32.33;17.33;;;;;;;;;;5049064;28;20021;-80
2022/01/03 12:16:18;;;;;;;32.33;17.65;;;;;;;;;;5051346;28;20035;-81
2022/01/03 12:19:00;;;;;;;27.92;17.08;;;;;;;;;;5054108;28;20029;-80
2022/01/03 12:21:54;;;;;;;31.83;18.60;;;;;;;;;;5035818;28;20026;-80
2022/01/03 12:24:28;;;;;;;35.40;18.35;;;;;;;;;;5025003;28;20044;-80
2022/01/03 12:27:44;;;;;;;29.95;18.48;;;;;;;;;;5048437;28;20032;-80
2022/01/03 12:30:15;;;;;;;34.97;19.85;;;;;;;;;;5027508;28;20040;-82
2022/01/03 12:32:45;;;;;;;35.92;19.70;;;;;;;;;;5047931;28;20018;-80
2022/01/03 12:35:15;;;;;;;;;;;;;;;;;;5049886;28;20461;-81
2022/01/03 12:37:54;;;;;;;36.83;19.17;;;;;;;;;;5041635;28;19913;-81
2022/01/03 12:40:31;;;;;;;30.13;18.50;;;;;;;;;;5032879;28;20091;-82
2022/01/03 12:43:02;;;;;;;33.60;19.92;;;;;;;;;;5050961;28;20074;-80
2022/01/03 12:45:32;;;;;;;34.03;17.80;;;;;;;;;;5053545;28;20399;-80
2022/01/03 12:48:09;;;;;;;38.60;19.73;;;;;;;;;;5045492;28;20021;-81
2022/01/03 12:50:36;;;;;;;34.28;19.48;;;;;;;;;;5048285;28;20121;-82
2022/01/03 12:53:04;;;;;;;32.75;17.80;;;;;;;;;;5052217;28;20020;-80
2022/01/03 12:55:38;;;;;;;35.60;19.17;;;;;;;;;;5034990;28;20025;-81
2022/01/03 12:58:24;;;;;;;30.60;18.98;;;;;;;;;;5051482;28;20079;-82
2022/01/03 13:00:58;;;;;;;33.42;18.63;;;;;;;;;;5040880;28;20025;-82
2022/01/03 13:03:28;;;;;;;31.45;19.67;;;;;;;;;;5044270;28;20029;-84
2022/01/03 13:06:19;;;;;;;37.72;20.50;;;;;;;;;;5046311;28;20021;-81
2022/01/03 13:08:48;;;;;;;33.28;18.65;;;;;;;;;;5047949;28;20029;-83
2022/01/03 13:11:34;;;;;;;31.02;18.08;;;;;;;;;;5050418;28;20526;-82
2022/01/03 13:14:01;;;;;;;33.35;19.52;;;;;;;;;;5050276;28;20489;-81
2022/01/03 13:16:31;;;;;;;33.35;18.77;;;;;;;;;;5043936;28;20033;-82
2022/01/03 13:18:56;;;;;;;32.65;19.10;;;;;;;;;;5042731;28;20029;-82
2022/01/03 13:21:24;;;;;;;53.03;28.73;;;;;;;;;;5046439;28;20527;-82
2022/01/03 13:24:00;;;;;;;47.17;25.05;;;;;;;;;;5060021;28;20127;-84
2022/01/03 13:26:28;;;;;;;34.08;18.90;;;;;;;;;;5029400;28;20473;-83
2022/01/03 13:28:58;;;;;;;34.17;19.55;;;;;;;;;;5051269;28;20029;-82
2022/01/03 13:31:25;;;;;;;36.10;18.60;;;;;;;;;;5053478;28;20060;-82
2022/01/03 13:34:02;;;;;;;31.73;17.25;;;;;;;;;;5061404;28;20475;-83
2022/01/03 13:36:36;;;;;;;29.90;17.77;;;;;;;;;;5046534;28;20025;-82
2022/01/03 13:39:23;;;;;;;31.02;17.35;;;;;;;;;;5056093;28;20053;-82
2022/01/03 13:42:02;;;;;;;31.27;17.45;;;;;;;;;;5055472;28;20504;-82
2022/01/03 13:45:17;;;;;;;33.03;17.60;;;;;;;;;;5032975;28;20518;-82
2022/01/03 13:50:22;;;;;;;34.70;17.17;;;;;;;;;;5048228;28;20071;-82
2022/01/03 13:52:49;;;;;;;26.15;16.48;;;;;;;;;;5016156;28;20018;-82
2022/01/03 13:55:34;;;;;;;24.88;15.38;;;;;;;;;;5011699;28;20555;-82
2022/01/03 13:58:04;;;;;;;26.08;15.70;;;;;;;;;;5000154;28;20037;-82
2022/01/03 14:00:30;;;;;;;28.75;16.88;;;;;;;;;;5015675;28;20108;-83
2022/01/03 14:02:56;;;;;;;36.45;18.58;;;;;;;;;;5008279;28;20045;-82
2022/01/03 14:05:22;;;;;;;32.53;19.48;;;;;;;;;;5014682;28;20153;-82
2022/01/03 14:07:59;;;;;;;39.63;21.38;;;;;;;;;;5016475;28;20108;-83
2022/01/03 14:10:54;;;;;;;41.13;23.00;;;;;;;;;;5010552;28;20421;-82
2022/01/03 14:13:21;;;;;;;42.17;21.00;;;;;;;;;;4986452;28;20564;-80
2022/01/03 14:16:11;;;;;;;33.92;20.92;;;;;;;;;;5026650;28;20029;-81
2022/01/03 14:18:50;;;;;;;45.63;23.33;;;;;;;;;;5005535;28;20362;-83
2022/01/03 14:21:18;;;;;;;41.85;22.13;;;;;;;;;;5001509;28;20029;-81
2022/01/03 14:23:45;;;;;;;35.95;21.48;;;;;;;;;;5012609;28;20038;-80
2022/01/03 14:26:31;;;;;;;32.60;19.00;;;;;;;;;;5012407;28;20084;-81
2022/01/03 14:29:10;;;;;;;35.90;19.17;;;;;;;;;;4989637;28;20064;-82
2022/01/03 14:31:56;;;;;;;32.17;17.77;;;;;;;;;;4997969;28;20091;-80
2022/01/03 14:34:29;;;;;;;28.70;15.52;;;;;;;;;;5014304;28;20033;-82
2022/01/03 14:36:57;;;;;;;32.70;15.10;;;;;;;;;;4998327;28;20474;-81
2022/01/03 14:39:24;;;;;;;32.08;18.02;;;;;;;;;;5015550;28;20030;-82
2022/01/03 14:42:06;;;;;;;27.58;15.80;;;;;;;;;;5020063;28;20021;-81
2022/01/03 14:44:34;;;;;;;25.70;13.93;;;;;;;;;;5001045;28;20488;-82
2022/01/03 14:47:08;;;;;;;26.92;13.73;;;;;;;;;;5009846;28;20057;-81
2022/01/03 14:49:36;;;;;;;25.15;15.45;;;;;;;;;;5022500;28;20030;-80
2022/01/03 14:52:01;;;;;;;20.70;10.85;;;;;;;;;;5011614;28;20097;-82
2022/01/03 14:54:32;;;;;;;29.25;14.38;;;;;;;;;;5024329;28;20117;-80
2022/01/03 14:57:27;;;;;;;23.63;12.25;;;;;;;;;;5016404;28;20072;-83
2022/01/03 14:59:53;;;;;;;12.20;7.95;;;;;;;;;;5011974;28;20378;-82